sensor_id;sensor_type;location;lat;lon;timestamp;temperature;humidity
13074;DHT22;6603;47.066;15.396;2022-12-18T00:01:13;-2.50;99.90
13074;DHT22;6603;47.066;15.396;2022-12-18T00:03:39;-2.60;99.90
13074;DHT22;6603;47.066;15.396;2022-12-18T00:06:05;-2.70;99.90
13074;DHT22;6603;47.066;15.396;2022-12-18T00:08:31;-2.70;99.90
13074;DHT22;6603;47.066;15.396;2022-12-18T00:11:04;-2.70;99.90
13074;DHT22;6603;47.066;15.396;2022-12-18T00:13:30;-2.70;99.90
13074;DHT22;6603;47.066;15.396;2022-12-18T00:16:00;-2.70;99.90
13074;DHT22;6603;47.066;15.396;2022-12-18T00:18:26;-2.70;99.90
13074;DHT22;6603;47.066;15.396;2022-12-18T00:20:52;-2.80;99.90
13074;DHT22;6603;47.066;15.396;2022-12-18T00:23:17;-2.80;99.90
13074;DHT22;6603;47.066;15.396;2022-12-18T00:25:43;-2.90;99.90
13074;DHT22;6603;47.066;15.396;2022-12-18T00:28:09;-2.80;99.90
13074;DHT22;6603;47.066;15.396;2022-12-18T00:30:34;-2.90;99.90
13074;DHT22;6603;47.066;15.396;2022-12-18T00:33:00;-2.80;99.90
13074;DHT22;6603;47.066;15.396;2022-12-18T00:35:26;-2.80;99.90
13074;DHT22;6603;47.066;15.396;2022-12-18T00:37:51;-2.80;99.90
13074;DHT22;6603;47.066;15.396;2022-12-18T00:40:17;-2.70;99.90
13074;DHT22;6603;47.066;15.396;2022-12-18T00:42:43;-2.70;99.90
13074;DHT22;6603;47.066;15.396;2022-12-18T00:45:22;-2.70;99.90
13074;DHT22;6603;47.066;15.396;2022-12-18T00:47:51;-2.70;99.90
13074;DHT22;6603;47.066;15.396;2022-12-18T00:50:17;-2.80;99.90
13074;DHT22;6603;47.066;15.396;2022-12-18T00:52:43;-2.90;99.90
13074;DHT22;6603;47.066;15.396;2022-12-18T01:27:58;-2.60;99.90
13074;DHT22;6603;47.066;15.396;2022-12-18T01:30:25;-2.80;99.90
13074;DHT22;6603;47.066;15.396;2022-12-18T01:32:51;-2.90;99.90
13074;DHT22;6603;47.066;15.396;2022-12-18T01:35:17;-2.90;99.90
13074;DHT22;6603;47.066;15.396;2022-12-18T01:37:42;-2.90;99.90
13074;DHT22;6603;47.066;15.396;2022-12-18T01:40:09;-2.90;99.90
13074;DHT22;6603;47.066;15.396;2022-12-18T01:42:35;-2.90;99.90
13074;DHT22;6603;47.066;15.396;2022-12-18T01:47:46;-2.90;99.90
13074;DHT22;6603;47.066;15.396;2022-12-18T01:52:43;-3.10;99.90
13074;DHT22;6603;47.066;15.396;2022-12-18T01:55:11;-3.10;99.90
13074;DHT22;6603;47.066;15.396;2022-12-18T01:57:39;-3.40;99.90
13074;DHT22;6603;47.066;15.396;2022-12-18T02:00:16;-3.40;99.90
13074;DHT22;6603;47.066;15.396;2022-12-18T02:02:44;-3.30;99.90
13074;DHT22;6603;47.066;15.396;2022-12-18T02:05:12;-3.40;99.90
13074;DHT22;6603;47.066;15.396;2022-12-18T02:13:18;-3.40;99.90
13074;DHT22;6603;47.066;15.396;2022-12-18T02:18:32;-3.50;99.90
13074;DHT22;6603;47.066;15.396;2022-12-18T02:21:25;-3.60;99.90
13074;DHT22;6603;47.066;15.396;2022-12-18T02:29:15;-3.20;99.90
13074;DHT22;6603;47.066;15.396;2022-12-18T02:31:47;-3.60;99.90
13074;DHT22;6603;47.066;15.396;2022-12-18T02:34:16;-3.60;99.90
13074;DHT22;6603;47.066;15.396;2022-12-18T02:36:45;-3.50;99.90
13074;DHT22;6603;47.066;15.396;2022-12-18T02:39:12;-3.50;99.90
13074;DHT22;6603;47.066;15.396;2022-12-18T02:41:39;-3.70;99.90
13074;DHT22;6603;47.066;15.396;2022-12-18T02:44:11;-3.80;99.90
13074;DHT22;6603;47.066;15.396;2022-12-18T02:46:50;-4.00;99.90
13074;DHT22;6603;47.066;15.396;2022-12-18T02:54:45;-3.90;99.90
13074;DHT22;6603;47.066;15.396;2022-12-18T03:00:03;-3.70;99.90
13074;DHT22;6603;47.066;15.396;2022-12-18T03:05:52;-3.30;99.90
13074;DHT22;6603;47.066;15.396;2022-12-18T03:08:22;-3.80;99.90
13074;DHT22;6603;47.066;15.396;2022-12-18T03:10:59;-3.90;99.90
13074;DHT22;6603;47.066;15.396;2022-12-18T03:16:12;-3.40;99.90
13074;DHT22;6603;47.066;15.396;2022-12-18T03:18:46;-3.30;99.90
13074;DHT22;6603;47.066;15.396;2022-12-18T03:21:17;-3.30;99.90
13074;DHT22;6603;47.066;15.396;2022-12-18T03:23:48;-3.50;99.90
13074;DHT22;6603;47.066;15.396;2022-12-18T03:26:18;-3.70;99.90
13074;DHT22;6603;47.066;15.396;2022-12-18T03:28:53;-3.80;99.90
13074;DHT22;6603;47.066;15.396;2022-12-18T03:31:23;-3.70;99.90
13074;DHT22;6603;47.066;15.396;2022-12-18T03:33:58;-3.70;99.90
13074;DHT22;6603;47.066;15.396;2022-12-18T03:36:25;-3.90;99.90
13074;DHT22;6603;47.066;15.396;2022-12-18T03:38:52;-4.00;99.90
13074;DHT22;6603;47.066;15.396;2022-12-18T03:41:33;-4.10;99.90
13074;DHT22;6603;47.066;15.396;2022-12-18T03:44:36;-4.00;99.90
13074;DHT22;6603;47.066;15.396;2022-12-18T03:47:13;-3.90;99.90
13074;DHT22;6603;47.066;15.396;2022-12-18T03:49:51;-4.20;99.90
13074;DHT22;6603;47.066;15.396;2022-12-18T03:52:39;-4.50;99.90
13074;DHT22;6603;47.066;15.396;2022-12-18T03:55:09;-4.60;99.90
13074;DHT22;6603;47.066;15.396;2022-12-18T03:57:37;-4.50;99.90
13074;DHT22;6603;47.066;15.396;2022-12-18T04:00:08;-4.20;99.90
13074;DHT22;6603;47.066;15.396;2022-12-18T04:02:35;-4.00;99.90
13074;DHT22;6603;47.066;15.396;2022-12-18T04:05:05;-4.10;99.90
13074;DHT22;6603;47.066;15.396;2022-12-18T04:07:33;-4.20;99.90
13074;DHT22;6603;47.066;15.396;2022-12-18T04:10:01;-4.20;99.90
13074;DHT22;6603;47.066;15.396;2022-12-18T04:12:29;-4.10;99.90
13074;DHT22;6603;47.066;15.396;2022-12-18T04:14:55;-3.90;99.90
13074;DHT22;6603;47.066;15.396;2022-12-18T04:17:22;-4.10;96.50
13074;DHT22;6603;47.066;15.396;2022-12-18T04:19:48;-4.60;99.90
13074;DHT22;6603;47.066;15.396;2022-12-18T04:22:13;-4.40;99.90
13074;DHT22;6603;47.066;15.396;2022-12-18T04:24:39;-4.70;94.20
13074;DHT22;6603;47.066;15.396;2022-12-18T04:27:06;-4.70;99.90
13074;DHT22;6603;47.066;15.396;2022-12-18T04:29:33;-4.40;99.90
13074;DHT22;6603;47.066;15.396;2022-12-18T04:31:59;-4.20;99.90
13074;DHT22;6603;47.066;15.396;2022-12-18T04:34:24;-4.30;99.90
13074;DHT22;6603;47.066;15.396;2022-12-18T04:36:50;-4.60;99.20
13074;DHT22;6603;47.066;15.396;2022-12-18T04:39:19;-4.70;99.90
13074;DHT22;6603;47.066;15.396;2022-12-18T04:41:45;-4.70;99.90
13074;DHT22;6603;47.066;15.396;2022-12-18T04:44:11;-4.50;99.90
13074;DHT22;6603;47.066;15.396;2022-12-18T04:46:37;-4.30;99.90
13074;DHT22;6603;47.066;15.396;2022-12-18T04:49:03;-4.40;99.90
13074;DHT22;6603;47.066;15.396;2022-12-18T04:51:28;-4.40;99.90
13074;DHT22;6603;47.066;15.396;2022-12-18T04:53:54;-4.40;99.90
13074;DHT22;6603;47.066;15.396;2022-12-18T04:56:20;-4.30;99.90
13074;DHT22;6603;47.066;15.396;2022-12-18T04:58:46;-4.50;99.90
13074;DHT22;6603;47.066;15.396;2022-12-18T05:01:14;-4.50;95.60
13074;DHT22;6603;47.066;15.396;2022-12-18T05:03:40;-4.90;94.60
13074;DHT22;6603;47.066;15.396;2022-12-18T05:06:07;-4.90;99.90
13074;DHT22;6603;47.066;15.396;2022-12-18T05:08:33;-5.10;99.90
13074;DHT22;6603;47.066;15.396;2022-12-18T05:11:12;-5.20;99.90
13074;DHT22;6603;47.066;15.396;2022-12-18T05:13:40;-4.80;99.90
13074;DHT22;6603;47.066;15.396;2022-12-18T05:16:06;-4.90;99.90
13074;DHT22;6603;47.066;15.396;2022-12-18T05:18:33;-4.50;99.90
13074;DHT22;6603;47.066;15.396;2022-12-18T05:20:59;-4.30;99.90
13074;DHT22;6603;47.066;15.396;2022-12-18T05:23:25;-4.40;93.30
13074;DHT22;6603;47.066;15.396;2022-12-18T05:26:00;-4.70;99.90
13074;DHT22;6603;47.066;15.396;2022-12-18T05:28:28;-4.40;99.90
13074;DHT22;6603;47.066;15.396;2022-12-18T05:30:57;-4.70;50.50
13074;DHT22;6603;47.066;15.396;2022-12-18T05:33:25;-5.00;90.60
13074;DHT22;6603;47.066;15.396;2022-12-18T05:35:53;-4.80;99.90
13074;DHT22;6603;47.066;15.396;2022-12-18T05:38:21;-4.80;92.70
13074;DHT22;6603;47.066;15.396;2022-12-18T05:40:48;-4.70;99.90
13074;DHT22;6603;47.066;15.396;2022-12-18T05:43:15;-4.40;99.90
13074;DHT22;6603;47.066;15.396;2022-12-18T05:45:42;-4.40;99.90
13074;DHT22;6603;47.066;15.396;2022-12-18T05:48:09;-4.40;99.90
13074;DHT22;6603;47.066;15.396;2022-12-18T05:50:39;-4.40;99.90
13074;DHT22;6603;47.066;15.396;2022-12-18T05:53:06;-4.60;78.30
13074;DHT22;6603;47.066;15.396;2022-12-18T05:55:34;-4.70;98.30
13074;DHT22;6603;47.066;15.396;2022-12-18T05:58:00;-5.00;99.90
13074;DHT22;6603;47.066;15.396;2022-12-18T06:00:26;-4.60;99.90
13074;DHT22;6603;47.066;15.396;2022-12-18T06:02:52;-4.50;99.90
13074;DHT22;6603;47.066;15.396;2022-12-18T06:05:18;-4.30;99.90
13074;DHT22;6603;47.066;15.396;2022-12-18T06:07:44;-4.70;91.90
13074;DHT22;6603;47.066;15.396;2022-12-18T06:10:10;-4.50;99.90
13074;DHT22;6603;47.066;15.396;2022-12-18T06:12:37;-4.30;99.90
13074;DHT22;6603;47.066;15.396;2022-12-18T06:15:04;-4.40;99.90
13074;DHT22;6603;47.066;15.396;2022-12-18T06:17:31;-4.40;99.90
13074;DHT22;6603;47.066;15.396;2022-12-18T06:19:58;-4.70;65.70
13074;DHT22;6603;47.066;15.396;2022-12-18T06:22:24;-4.50;99.90
13074;DHT22;6603;47.066;15.396;2022-12-18T06:24:50;-4.50;99.90
13074;DHT22;6603;47.066;15.396;2022-12-18T06:27:16;-4.30;99.90
13074;DHT22;6603;47.066;15.396;2022-12-18T06:29:42;-4.20;82.10
13074;DHT22;6603;47.066;15.396;2022-12-18T06:32:08;-4.30;99.90
13074;DHT22;6603;47.066;15.396;2022-12-18T06:34:37;-4.00;99.90
13074;DHT22;6603;47.066;15.396;2022-12-18T06:37:03;-4.00;99.90
13074;DHT22;6603;47.066;15.396;2022-12-18T06:39:29;-4.20;99.90
13074;DHT22;6603;47.066;15.396;2022-12-18T06:41:55;-4.00;99.90
13074;DHT22;6603;47.066;15.396;2022-12-18T06:44:21;-3.90;99.90
13074;DHT22;6603;47.066;15.396;2022-12-18T06:46:48;-3.80;99.90
13074;DHT22;6603;47.066;15.396;2022-12-18T06:49:13;-3.70;99.90
13074;DHT22;6603;47.066;15.396;2022-12-18T06:51:39;-3.60;99.90
13074;DHT22;6603;47.066;15.396;2022-12-18T06:54:05;-3.50;99.90
13074;DHT22;6603;47.066;15.396;2022-12-18T06:56:32;-3.70;99.90
13074;DHT22;6603;47.066;15.396;2022-12-18T06:58:58;-3.70;99.90
13074;DHT22;6603;47.066;15.396;2022-12-18T07:01:24;-3.60;99.90
13074;DHT22;6603;47.066;15.396;2022-12-18T07:03:54;-3.40;99.90
13074;DHT22;6603;47.066;15.396;2022-12-18T07:06:22;-3.70;99.90
13074;DHT22;6603;47.066;15.396;2022-12-18T07:08:49;-3.80;99.90
13074;DHT22;6603;47.066;15.396;2022-12-18T07:11:16;-3.80;99.90
13074;DHT22;6603;47.066;15.396;2022-12-18T07:13:43;-3.90;99.90
13074;DHT22;6603;47.066;15.396;2022-12-18T07:16:12;-3.60;99.90
13074;DHT22;6603;47.066;15.396;2022-12-18T07:18:38;-3.70;99.90
13074;DHT22;6603;47.066;15.396;2022-12-18T07:21:06;-3.40;99.90
13074;DHT22;6603;47.066;15.396;2022-12-18T07:23:33;-3.20;99.90
13074;DHT22;6603;47.066;15.396;2022-12-18T07:26:08;-3.00;99.90
13074;DHT22;6603;47.066;15.396;2022-12-18T07:28:35;-2.90;99.90
13074;DHT22;6603;47.066;15.396;2022-12-18T07:31:03;-2.80;99.90
13074;DHT22;6603;47.066;15.396;2022-12-18T07:33:29;-2.70;99.90
13074;DHT22;6603;47.066;15.396;2022-12-18T07:35:55;-2.80;95.80
13074;DHT22;6603;47.066;15.396;2022-12-18T07:38:21;-2.60;99.90
13074;DHT22;6603;47.066;15.396;2022-12-18T07:46:47;-3.00;99.90
13074;DHT22;6603;47.066;15.396;2022-12-18T07:49:13;-2.80;99.90
13074;DHT22;6603;47.066;15.396;2022-12-18T07:51:39;-2.60;99.90
13074;DHT22;6603;47.066;15.396;2022-12-18T07:54:05;-2.80;99.90
13074;DHT22;6603;47.066;15.396;2022-12-18T07:56:30;-2.80;99.90
13074;DHT22;6603;47.066;15.396;2022-12-18T07:58:57;-2.50;99.90
13074;DHT22;6603;47.066;15.396;2022-12-18T08:01:24;-2.60;99.90
13074;DHT22;6603;47.066;15.396;2022-12-18T08:03:50;-2.50;99.90
13074;DHT22;6603;47.066;15.396;2022-12-18T08:06:15;-2.50;99.90
13074;DHT22;6603;47.066;15.396;2022-12-18T08:08:42;-2.50;99.90
13074;DHT22;6603;47.066;15.396;2022-12-18T08:11:08;-2.30;99.90
13074;DHT22;6603;47.066;15.396;2022-12-18T08:13:34;-2.40;99.90
13074;DHT22;6603;47.066;15.396;2022-12-18T08:16:07;-2.50;99.90
13074;DHT22;6603;47.066;15.396;2022-12-18T08:18:34;-2.50;99.90
13074;DHT22;6603;47.066;15.396;2022-12-18T08:21:18;-2.40;99.90
13074;DHT22;6603;47.066;15.396;2022-12-18T08:23:46;-2.20;99.90
13074;DHT22;6603;47.066;15.396;2022-12-18T08:26:13;-2.10;95.50
13074;DHT22;6603;47.066;15.396;2022-12-18T08:28:40;-2.10;97.50
13074;DHT22;6603;47.066;15.396;2022-12-18T08:31:06;-2.20;99.90
13074;DHT22;6603;47.066;15.396;2022-12-18T08:33:33;-2.10;99.90
13074;DHT22;6603;47.066;15.396;2022-12-18T08:35:59;-2.00;99.90
13074;DHT22;6603;47.066;15.396;2022-12-18T08:38:25;-2.20;99.90
13074;DHT22;6603;47.066;15.396;2022-12-18T08:40:59;-2.10;99.90
13074;DHT22;6603;47.066;15.396;2022-12-18T08:43:26;-2.00;99.90
13074;DHT22;6603;47.066;15.396;2022-12-18T08:46:10;-2.00;99.90
13074;DHT22;6603;47.066;15.396;2022-12-18T08:48:36;-2.00;99.90
13074;DHT22;6603;47.066;15.396;2022-12-18T08:51:02;-2.00;93.40
13074;DHT22;6603;47.066;15.396;2022-12-18T08:53:28;-2.00;99.90
13074;DHT22;6603;47.066;15.396;2022-12-18T08:55:54;-2.00;99.90
13074;DHT22;6603;47.066;15.396;2022-12-18T08:58:21;-2.10;99.90
13074;DHT22;6603;47.066;15.396;2022-12-18T09:00:47;-2.00;99.90
13074;DHT22;6603;47.066;15.396;2022-12-18T09:03:14;-2.10;99.90
13074;DHT22;6603;47.066;15.396;2022-12-18T09:05:40;-1.90;99.90
13074;DHT22;6603;47.066;15.396;2022-12-18T09:08:07;-1.90;99.90
13074;DHT22;6603;47.066;15.396;2022-12-18T09:10:33;-1.70;99.90
13074;DHT22;6603;47.066;15.396;2022-12-18T09:12:58;-1.80;99.90
13074;DHT22;6603;47.066;15.396;2022-12-18T09:15:24;-1.70;99.90
13074;DHT22;6603;47.066;15.396;2022-12-18T09:17:50;-1.60;99.90
13074;DHT22;6603;47.066;15.396;2022-12-18T09:20:16;-1.60;99.90
13074;DHT22;6603;47.066;15.396;2022-12-18T09:22:42;-1.60;99.90
13074;DHT22;6603;47.066;15.396;2022-12-18T09:25:08;-1.50;99.90
13074;DHT22;6603;47.066;15.396;2022-12-18T09:27:34;-1.50;99.90
13074;DHT22;6603;47.066;15.396;2022-12-18T09:30:00;-1.40;99.90
13074;DHT22;6603;47.066;15.396;2022-12-18T09:32:26;-1.30;99.90
13074;DHT22;6603;47.066;15.396;2022-12-18T09:34:52;-1.40;99.90
13074;DHT22;6603;47.066;15.396;2022-12-18T09:37:18;-1.60;92.80
13074;DHT22;6603;47.066;15.396;2022-12-18T09:39:44;-1.50;99.90
13074;DHT22;6603;47.066;15.396;2022-12-18T09:42:21;-1.60;99.90
13074;DHT22;6603;47.066;15.396;2022-12-18T09:44:52;-1.50;99.90
13074;DHT22;6603;47.066;15.396;2022-12-18T09:47:27;-1.40;99.90
13074;DHT22;6603;47.066;15.396;2022-12-18T09:49:59;-1.40;99.90
13074;DHT22;6603;47.066;15.396;2022-12-18T09:52:45;-1.30;99.90
13074;DHT22;6603;47.066;15.396;2022-12-18T09:55:34;-1.20;99.90
13074;DHT22;6603;47.066;15.396;2022-12-18T10:00:53;-1.00;99.90
13074;DHT22;6603;47.066;15.396;2022-12-18T10:03:20;-0.80;99.90
13074;DHT22;6603;47.066;15.396;2022-12-18T10:10:55;-0.80;92.80
13074;DHT22;6603;47.066;15.396;2022-12-18T10:21:56;-0.70;48.70
13074;DHT22;6603;47.066;15.396;2022-12-18T10:27:18;-0.60;67.90
13074;DHT22;6603;47.066;15.396;2022-12-18T10:29:47;-0.80;43.90
13074;DHT22;6603;47.066;15.396;2022-12-18T10:32:16;-0.80;61.00
13074;DHT22;6603;47.066;15.396;2022-12-18T10:34:47;-0.70;63.50
13074;DHT22;6603;47.066;15.396;2022-12-18T10:37:17;-0.60;69.50
13074;DHT22;6603;47.066;15.396;2022-12-18T10:39:45;-0.60;23.30
13074;DHT22;6603;47.066;15.396;2022-12-18T10:42:18;-0.60;29.80
13074;DHT22;6603;47.066;15.396;2022-12-18T10:44:45;-0.70;26.50
13074;DHT22;6603;47.066;15.396;2022-12-18T10:47:15;-0.50;58.20
13074;DHT22;6603;47.066;15.396;2022-12-18T10:49:49;-0.60;19.60
13074;DHT22;6603;47.066;15.396;2022-12-18T10:52:24;-0.60;36.90
13074;DHT22;6603;47.066;15.396;2022-12-18T10:55:02;-0.60;31.90
13074;DHT22;6603;47.066;15.396;2022-12-18T10:59:56;-0.60;60.70
13074;DHT22;6603;47.066;15.396;2022-12-18T11:02:38;-0.60;50.10
13074;DHT22;6603;47.066;15.396;2022-12-18T11:07:50;-0.60;32.80
13074;DHT22;6603;47.066;15.396;2022-12-18T11:10:20;-0.70;57.00
13074;DHT22;6603;47.066;15.396;2022-12-18T11:12:47;-0.80;52.10
13074;DHT22;6603;47.066;15.396;2022-12-18T11:15:21;-0.70;49.20
13074;DHT22;6603;47.066;15.396;2022-12-18T11:17:51;-0.80;30.70
13074;DHT22;6603;47.066;15.396;2022-12-18T11:20:36;-0.70;39.20
13074;DHT22;6603;47.066;15.396;2022-12-18T11:23:11;-0.80;54.00
13074;DHT22;6603;47.066;15.396;2022-12-18T11:25:39;-0.70;27.00
13074;DHT22;6603;47.066;15.396;2022-12-18T11:28:29;-0.70;16.90
13074;DHT22;6603;47.066;15.396;2022-12-18T11:31:18;-0.80;11.20
13074;DHT22;6603;47.066;15.396;2022-12-18T11:33:52;-0.80;15.60
13074;DHT22;6603;47.066;15.396;2022-12-18T11:36:20;-0.80;14.10
13074;DHT22;6603;47.066;15.396;2022-12-18T11:38:48;-0.80;24.60
13074;DHT22;6603;47.066;15.396;2022-12-18T11:41:41;-0.70;31.60
13074;DHT22;6603;47.066;15.396;2022-12-18T11:44:54;-0.70;18.10
13074;DHT22;6603;47.066;15.396;2022-12-18T11:50:21;-0.70;8.50
13074;DHT22;6603;47.066;15.396;2022-12-18T11:52:49;-0.80;1.00
13074;DHT22;6603;47.066;15.396;2022-12-18T11:55:35;-1.00;5.90
13074;DHT22;6603;47.066;15.396;2022-12-18T12:06:23;-1.00;58.60
13074;DHT22;6603;47.066;15.396;2022-12-18T12:14:52;-0.90;78.60
13074;DHT22;6603;47.066;15.396;2022-12-18T12:28:02;-1.00;83.80
13074;DHT22;6603;47.066;15.396;2022-12-18T12:38:54;-1.20;99.90
13074;DHT22;6603;47.066;15.396;2022-12-18T12:41:24;-1.20;99.90
13074;DHT22;6603;47.066;15.396;2022-12-18T12:44:48;-1.10;99.90
13074;DHT22;6603;47.066;15.396;2022-12-18T12:47:32;-1.10;99.90
13074;DHT22;6603;47.066;15.396;2022-12-18T12:50:01;-1.20;99.90
13074;DHT22;6603;47.066;15.396;2022-12-18T12:54:59;-1.00;99.90
13074;DHT22;6603;47.066;15.396;2022-12-18T12:57:33;-1.10;99.90
13074;DHT22;6603;47.066;15.396;2022-12-18T13:00:11;-1.10;99.90
13074;DHT22;6603;47.066;15.396;2022-12-18T13:02:59;-1.10;99.90
13074;DHT22;6603;47.066;15.396;2022-12-18T13:05:38;-1.20;99.90
13074;DHT22;6603;47.066;15.396;2022-12-18T13:08:08;-1.30;99.90
13074;DHT22;6603;47.066;15.396;2022-12-18T13:10:39;-1.40;99.90
13074;DHT22;6603;47.066;15.396;2022-12-18T13:13:09;-1.40;99.90
13074;DHT22;6603;47.066;15.396;2022-12-18T13:15:45;-1.30;99.90
13074;DHT22;6603;47.066;15.396;2022-12-18T13:23:50;-1.30;99.90
13074;DHT22;6603;47.066;15.396;2022-12-18T13:34:25;-1.50;99.90
13074;DHT22;6603;47.066;15.396;2022-12-18T13:36:52;-1.40;99.90
13074;DHT22;6603;47.066;15.396;2022-12-18T13:41:45;-1.40;99.90
13074;DHT22;6603;47.066;15.396;2022-12-18T13:46:52;-1.30;99.90
13074;DHT22;6603;47.066;15.396;2022-12-18T13:51:56;-1.40;99.90
13074;DHT22;6603;47.066;15.396;2022-12-18T13:54:39;-1.30;99.90
13074;DHT22;6603;47.066;15.396;2022-12-18T13:57:37;-1.40;99.90
13074;DHT22;6603;47.066;15.396;2022-12-18T14:00:27;-1.40;99.90
13074;DHT22;6603;47.066;15.396;2022-12-18T14:02:55;-1.60;99.90
13074;DHT22;6603;47.066;15.396;2022-12-18T14:05:29;-1.50;99.90
13074;DHT22;6603;47.066;15.396;2022-12-18T14:08:10;-1.40;99.90
13074;DHT22;6603;47.066;15.396;2022-12-18T14:10:45;-1.50;99.90
13074;DHT22;6603;47.066;15.396;2022-12-18T14:13:20;-1.50;99.90
13074;DHT22;6603;47.066;15.396;2022-12-18T14:15:48;-1.60;99.90
13074;DHT22;6603;47.066;15.396;2022-12-18T14:21:23;-1.50;99.90
13074;DHT22;6603;47.066;15.396;2022-12-18T14:24:11;-1.60;99.90
13074;DHT22;6603;47.066;15.396;2022-12-18T14:26:39;-1.70;99.90
13074;DHT22;6603;47.066;15.396;2022-12-18T14:29:27;-1.70;99.90
13074;DHT22;6603;47.066;15.396;2022-12-18T14:32:12;-1.60;99.90
13074;DHT22;6603;47.066;15.396;2022-12-18T14:34:41;-1.50;99.90
13074;DHT22;6603;47.066;15.396;2022-12-18T14:37:11;-1.60;99.90
13074;DHT22;6603;47.066;15.396;2022-12-18T14:39:38;-1.60;99.90
13074;DHT22;6603;47.066;15.396;2022-12-18T14:42:04;-1.60;99.90
13074;DHT22;6603;47.066;15.396;2022-12-18T14:44:32;-1.60;99.90
13074;DHT22;6603;47.066;15.396;2022-12-18T14:47:04;-1.60;99.90
13074;DHT22;6603;47.066;15.396;2022-12-18T14:49:32;-1.60;99.90
13074;DHT22;6603;47.066;15.396;2022-12-18T14:52:13;-1.60;99.90
13074;DHT22;6603;47.066;15.396;2022-12-18T14:54:46;-1.60;99.90
13074;DHT22;6603;47.066;15.396;2022-12-18T14:59:47;-1.80;99.90
13074;DHT22;6603;47.066;15.396;2022-12-18T15:04:47;-1.70;99.90
13074;DHT22;6603;47.066;15.396;2022-12-18T15:20:45;-1.90;99.90
13074;DHT22;6603;47.066;15.396;2022-12-18T15:23:29;-2.00;99.90
13074;DHT22;6603;47.066;15.396;2022-12-18T15:26:03;-2.00;99.90
13074;DHT22;6603;47.066;15.396;2022-12-18T15:28:48;-2.00;99.90
13074;DHT22;6603;47.066;15.396;2022-12-18T15:36:14;-1.90;99.90
13074;DHT22;6603;47.066;15.396;2022-12-18T15:38:40;-1.90;99.90
13074;DHT22;6603;47.066;15.396;2022-12-18T15:41:13;-1.90;99.90
13074;DHT22;6603;47.066;15.396;2022-12-18T15:43:43;-1.90;99.90
13074;DHT22;6603;47.066;15.396;2022-12-18T15:46:16;-2.00;99.90
13074;DHT22;6603;47.066;15.396;2022-12-18T15:48:44;-1.90;99.90
13074;DHT22;6603;47.066;15.396;2022-12-18T15:51:17;-1.90;99.90
13074;DHT22;6603;47.066;15.396;2022-12-18T15:53:44;-1.90;99.90
13074;DHT22;6603;47.066;15.396;2022-12-18T15:56:11;-1.90;99.90
13074;DHT22;6603;47.066;15.396;2022-12-18T15:58:56;-1.90;99.90
13074;DHT22;6603;47.066;15.396;2022-12-18T16:01:27;-1.90;99.90
13074;DHT22;6603;47.066;15.396;2022-12-18T16:03:54;-1.90;99.90
13074;DHT22;6603;47.066;15.396;2022-12-18T16:06:21;-1.90;99.90
13074;DHT22;6603;47.066;15.396;2022-12-18T16:08:47;-1.90;99.90
13074;DHT22;6603;47.066;15.396;2022-12-18T16:11:31;-1.80;99.90
13074;DHT22;6603;47.066;15.396;2022-12-18T16:14:28;-1.80;99.90
13074;DHT22;6603;47.066;15.396;2022-12-18T16:17:01;-1.80;99.90
13074;DHT22;6603;47.066;15.396;2022-12-18T16:19:28;-1.80;99.90
13074;DHT22;6603;47.066;15.396;2022-12-18T16:21:56;-1.90;99.90
13074;DHT22;6603;47.066;15.396;2022-12-18T16:24:25;-1.90;99.90
13074;DHT22;6603;47.066;15.396;2022-12-18T16:26:52;-1.90;99.90
13074;DHT22;6603;47.066;15.396;2022-12-18T16:29:25;-1.80;99.90
13074;DHT22;6603;47.066;15.396;2022-12-18T16:32:01;-1.70;99.90
13074;DHT22;6603;47.066;15.396;2022-12-18T16:34:32;-1.60;99.90
13074;DHT22;6603;47.066;15.396;2022-12-18T16:37:03;-1.70;99.90
13074;DHT22;6603;47.066;15.396;2022-12-18T16:39:29;-1.80;99.90
13074;DHT22;6603;47.066;15.396;2022-12-18T16:41:56;-1.80;99.90
13074;DHT22;6603;47.066;15.396;2022-12-18T16:44:22;-1.90;99.90
13074;DHT22;6603;47.066;15.396;2022-12-18T16:46:48;-1.90;99.90
13074;DHT22;6603;47.066;15.396;2022-12-18T16:49:15;-1.90;99.90
13074;DHT22;6603;47.066;15.396;2022-12-18T16:51:45;-1.90;99.90
13074;DHT22;6603;47.066;15.396;2022-12-18T16:54:13;-1.90;99.90
13074;DHT22;6603;47.066;15.396;2022-12-18T16:56:40;-1.90;99.90
13074;DHT22;6603;47.066;15.396;2022-12-18T16:59:09;-1.80;99.90
13074;DHT22;6603;47.066;15.396;2022-12-18T17:01:36;-1.60;99.90
13074;DHT22;6603;47.066;15.396;2022-12-18T17:04:04;-1.70;99.90
13074;DHT22;6603;47.066;15.396;2022-12-18T17:06:34;-1.80;99.90
13074;DHT22;6603;47.066;15.396;2022-12-18T17:09:03;-1.80;99.90
13074;DHT22;6603;47.066;15.396;2022-12-18T17:11:31;-1.90;99.90
13074;DHT22;6603;47.066;15.396;2022-12-18T17:13:58;-2.00;99.90
13074;DHT22;6603;47.066;15.396;2022-12-18T17:16:25;-2.00;99.90
13074;DHT22;6603;47.066;15.396;2022-12-18T17:18:54;-1.90;99.90
13074;DHT22;6603;47.066;15.396;2022-12-18T17:21:19;-1.70;99.90
13074;DHT22;6603;47.066;15.396;2022-12-18T17:23:47;-1.70;99.90
13074;DHT22;6603;47.066;15.396;2022-12-18T17:26:13;-1.70;99.90
13074;DHT22;6603;47.066;15.396;2022-12-18T17:28:40;-1.80;99.90
13074;DHT22;6603;47.066;15.396;2022-12-18T17:31:11;-1.80;99.90
13074;DHT22;6603;47.066;15.396;2022-12-18T17:33:39;-1.90;99.90
13074;DHT22;6603;47.066;15.396;2022-12-18T17:36:06;-2.00;99.90
13074;DHT22;6603;47.066;15.396;2022-12-18T17:38:33;-2.00;99.90
13074;DHT22;6603;47.066;15.396;2022-12-18T17:41:08;-2.00;99.90
13074;DHT22;6603;47.066;15.396;2022-12-18T17:43:34;-2.00;99.90
13074;DHT22;6603;47.066;15.396;2022-12-18T17:46:10;-2.00;99.90
13074;DHT22;6603;47.066;15.396;2022-12-18T17:48:36;-2.00;99.90
13074;DHT22;6603;47.066;15.396;2022-12-18T17:51:03;-1.80;99.90
13074;DHT22;6603;47.066;15.396;2022-12-18T17:53:31;-1.80;99.90
13074;DHT22;6603;47.066;15.396;2022-12-18T17:55:58;-1.70;99.90
13074;DHT22;6603;47.066;15.396;2022-12-18T17:58:31;-1.60;99.90
13074;DHT22;6603;47.066;15.396;2022-12-18T18:01:00;-1.80;99.90
13074;DHT22;6603;47.066;15.396;2022-12-18T18:03:26;-1.50;99.90
13074;DHT22;6603;47.066;15.396;2022-12-18T18:05:56;-1.70;99.90
13074;DHT22;6603;47.066;15.396;2022-12-18T18:08:22;-1.70;99.90
13074;DHT22;6603;47.066;15.396;2022-12-18T18:10:49;-1.70;99.90
13074;DHT22;6603;47.066;15.396;2022-12-18T18:13:24;-1.80;99.90
13074;DHT22;6603;47.066;15.396;2022-12-18T18:16:10;-1.80;99.90
13074;DHT22;6603;47.066;15.396;2022-12-18T18:18:39;-1.90;99.90
13074;DHT22;6603;47.066;15.396;2022-12-18T18:21:06;-1.90;99.90
13074;DHT22;6603;47.066;15.396;2022-12-18T18:23:33;-1.90;99.90
13074;DHT22;6603;47.066;15.396;2022-12-18T18:26:04;-1.90;99.90
13074;DHT22;6603;47.066;15.396;2022-12-18T18:28:30;-1.90;99.90
13074;DHT22;6603;47.066;15.396;2022-12-18T18:30:57;-1.80;99.90
13074;DHT22;6603;47.066;15.396;2022-12-18T18:33:23;-1.80;99.90
13074;DHT22;6603;47.066;15.396;2022-12-18T18:35:49;-1.80;99.90
13074;DHT22;6603;47.066;15.396;2022-12-18T18:38:15;-1.80;99.90
13074;DHT22;6603;47.066;15.396;2022-12-18T18:40:40;-1.70;99.90
13074;DHT22;6603;47.066;15.396;2022-12-18T18:43:06;-1.80;99.90
13074;DHT22;6603;47.066;15.396;2022-12-18T18:45:34;-1.80;99.90
13074;DHT22;6603;47.066;15.396;2022-12-18T18:47:59;-1.80;99.90
13074;DHT22;6603;47.066;15.396;2022-12-18T18:50:25;-1.90;99.90